Time;durP1;ratioP1;P1;durP2;ratioP2;P2;SDS_P1;SDS_P2;PMS_P1;PMS_P2;Temp;Humidity;BMP_temperature;BMP_pressure;BME280_temperature;BME280_humidity;BME280_pressure;Samples;Min_cycle;Max_cycle;Signal;HPM_P1;HPM_P2
2023/11/17 00:00:54;;;;;;;;;4.00;4.00;;;;;9.84;89.99;101757.22;5058916;28;45339;-51
2023/11/17 00:03:19;;;;;;;;;2.67;2.67;;;;;9.82;90.09;101756.41;5059013;28;45312;-51
2023/11/17 00:05:44;;;;;;;;;4.33;3.00;;;;;9.80;90.05;101758.25;5058344;28;66403;-49
2023/11/17 00:08:10;;;;;;;;;5.00;3.00;;;;;9.79;89.84;101756.50;5059453;28;46066;-51
2023/11/17 00:10:35;;;;;;;;;3.00;3.00;;;;;9.77;90.27;101765.38;5058012;28;72171;-51
2023/11/17 00:13:00;;;;;;;;;4.00;2.67;;;;;9.77;89.86;101770.69;5057719;28;57056;-49
2023/11/17 00:15:26;;;;;;;;;5.00;3.00;;;;;9.77;90.16;101765.38;5058566;28;70209;-52
2023/11/17 00:17:52;;;;;;;;;2.33;2.33;;;;;9.80;90.08;101771.53;5059472;28;62950;-49
2023/11/17 00:20:19;;;;;;;;;4.00;4.00;;;;;9.77;90.07;101754.75;5058030;28;45638;-50
2023/11/17 00:22:44;;;;;;;;;3.00;2.00;;;;;9.77;90.00;101759.22;5065110;28;45338;-51
2023/11/17 00:25:09;;;;;;;;;5.00;3.33;;;;;9.77;89.81;101767.19;5058028;28;45387;-49
2023/11/17 00:27:37;;;;;;;;;2.67;2.00;;;;;9.73;89.66;101757.56;5063984;28;75518;-50
2023/11/17 00:30:04;;;;;;;;;3.00;2.00;;;;;9.69;90.04;101775.38;5058645;28;45450;-51
2023/11/17 00:32:30;;;;;;;;;3.67;2.33;;;;;9.63;89.55;101775.56;5060770;28;45487;-50
2023/11/17 00:34:55;;;;;;;;;4.33;2.33;;;;;9.56;89.92;101766.91;5057183;28;45360;-51
2023/11/17 00:37:21;;;;;;;;;2.00;2.00;;;;;9.50;89.97;101783.03;5064108;28;46059;-49
2023/11/17 00:39:47;;;;;;;;;0.00;0.00;;;;;9.44;90.12;101777.94;5062862;28;45313;-51
2023/11/17 00:42:12;;;;;;;;;2.00;2.00;;;;;9.38;90.12;101784.25;5062090;28;45286;-49
2023/11/17 00:44:37;;;;;;;;;1.00;1.00;;;;;9.32;90.09;101772.97;5062410;28;45397;-51
2023/11/17 00:47:04;;;;;;;;;2.00;2.00;;;;;9.26;90.46;101771.38;5062423;28;46252;-50
2023/11/17 00:49:29;;;;;;;;;2.00;2.00;;;;;9.21;90.75;101782.09;5061345;28;45583;-52
2023/11/17 00:51:55;;;;;;;;;5.33;2.00;;;;;9.17;90.67;101774.28;5059039;28;45645;-50
2023/11/17 00:54:25;;;;;;;;;2.67;2.67;;;;;9.13;90.84;101775.28;5062364;28;45473;-50
2023/11/17 00:56:54;;;;;;;;;4.00;3.67;;;;;9.08;90.84;101772.75;5062857;28;46203;-50
2023/11/17 00:59:21;;;;;;;;;1.67;1.67;;;;;9.05;90.95;101771.06;5061996;28;45354;-50
2023/11/17 01:01:46;;;;;;;;;1.00;1.00;;;;;9.05;91.24;101772.84;5062227;28;45278;-50
2023/11/17 01:04:13;;;;;;;;;4.00;2.33;;;;;9.04;91.35;101779.94;5060832;28;69045;-48
2023/11/17 01:06:38;;;;;;;;;1.67;1.00;;;;;9.02;91.88;101781.78;5065260;28;45706;-50
2023/11/17 01:09:04;;;;;;;;;3.67;2.00;;;;;9.01;91.72;101771.16;5061320;28;69404;-50
2023/11/17 01:11:29;;;;;;;;;1.00;1.00;;;;;8.97;91.97;101772.19;5061902;28;45390;-53
2023/11/17 01:13:55;;;;;;;;;1.67;1.67;;;;;8.93;92.15;101766.97;5061223;28;45570;-53
2023/11/17 01:16:20;;;;;;;;;3.67;2.33;;;;;8.93;92.54;101764.31;5061913;28;46497;-50
2023/11/17 01:18:46;;;;;;;;;2.00;2.00;;;;;8.92;92.47;101777.63;5063144;28;45421;-49
2023/11/17 01:21:11;;;;;;;;;3.67;2.00;;;;;8.90;92.10;101782.09;5061212;28;45974;-49
2023/11/17 01:23:36;;;;;;;;;0.00;0.00;;;;;8.86;92.17;101783.94;5061301;28;65589;-49
2023/11/17 01:26:02;;;;;;;;;2.00;0.67;;;;;8.82;92.46;101784.94;5073204;28;75350;-52
2023/11/17 01:28:27;;;;;;;;;1.00;1.00;;;;;8.79;92.32;101787.69;5061014;28;45169;-53
2023/11/17 01:30:53;;;;;;;;;2.00;2.00;;;;;8.77;92.77;101785.09;5061253;28;45456;-52
2023/11/17 01:33:18;;;;;;;;;3.00;2.00;;;;;8.74;92.73;101785.16;5061317;28;48031;-51
2023/11/17 01:35:44;;;;;;;;;1.00;1.00;;;;;8.71;92.68;101793.22;5062151;28;45450;-53
2023/11/17 01:38:11;;;;;;;;;0.00;0.00;;;;;8.69;92.43;101789.72;5061390;28;45423;-49
2023/11/17 01:40:37;;;;;;;;;1.00;1.00;;;;;8.68;93.17;101803.03;5061661;28;45355;-51
2023/11/17 01:43:05;;;;;;;;;1.00;1.00;;;;;8.69;93.24;101802.13;5062989;28;45523;-52
2023/11/17 01:45:31;;;;;;;;;1.00;1.00;;;;;8.76;93.59;101801.03;5060961;28;46199;-49
2023/11/17 01:47:57;;;;;;;;;0.67;0.67;;;;;8.82;93.89;101810.63;5068130;28;45354;-49
2023/11/17 01:50:22;;;;;;;;;1.33;1.00;;;;;8.90;93.36;101800.66;5055623;28;69087;-49
2023/11/17 01:52:47;;;;;;;;;1.00;1.00;;;;;8.97;93.48;101785.44;5061671;28;45480;-49
2023/11/17 01:55:15;;;;;;;;;0.00;0.00;;;;;9.02;93.32;101775.56;5059596;28;74313;-49
2023/11/17 01:57:42;;;;;;;;;1.67;0.00;;;;;9.08;93.58;101786.88;5061392;28;45342;-50
2023/11/17 02:00:14;;;;;;;;;0.00;0.00;;;;;9.13;93.27;101801.84;5062707;28;45366;-50
2023/11/17 02:02:43;;;;;;;;;1.00;1.00;;;;;9.17;92.89;101806.13;5061537;28;45349;-50
2023/11/17 02:05:10;;;;;;;;;1.00;1.00;;;;;9.17;92.77;101803.47;5060435;28;46569;-51
2023/11/17 02:07:59;;;;;;;;;1.00;1.00;;;;;9.16;92.59;101797.28;5062181;28;45271;-51
2023/11/17 02:10:40;;;;;;;;;0.00;0.00;;;;;9.16;92.61;101801.75;5061766;28;45458;-51
2023/11/17 02:13:11;;;;;;;;;1.33;1.33;;;;;9.13;92.62;101792.06;5060171;28;45510;-50
2023/11/17 02:15:39;;;;;;;;;0.00;0.00;;;;;9.08;92.95;101776.28;5052964;28;46471;-49
2023/11/17 02:18:10;;;;;;;;;0.00;0.00;;;;;9.06;92.87;101780.78;5061629;28;45322;-49
2023/11/17 02:20:36;;;;;;;;;1.00;0.67;;;;;9.08;93.16;101786.88;5060374;28;45399;-49
2023/11/17 02:23:10;;;;;;;;;0.00;0.00;;;;;9.10;93.22;101789.53;5063462;28;45334;-49
2023/11/17 02:25:47;;;;;;;;;1.00;1.00;;;;;9.14;93.02;101790.28;5058662;28;46521;-51
2023/11/17 02:28:30;;;;;;;;;4.67;1.33;;;;;9.17;93.21;101791.06;5093424;27;46807;-50
2023/11/17 02:30:57;;;;;;;;;2.00;2.00;;;;;9.21;92.91;101783.91;5060558;28;45943;-49
2023/11/17 02:33:27;;;;;;;;;2.00;0.67;;;;;9.21;93.41;101784.75;5059727;28;45838;-50
2023/11/17 02:35:55;;;;;;;;;1.00;1.00;;;;;9.22;92.96;101783.84;5063936;28;50275;-51
2023/11/17 02:38:21;;;;;;;;;0.33;0.33;;;;;9.19;92.75;101783.06;5092415;27;45377;-51
2023/11/17 02:40:46;;;;;;;;;1.67;1.00;;;;;9.18;92.73;101787.50;5060695;28;45807;-49
2023/11/17 02:43:12;;;;;;;;;2.00;0.00;;;;;9.19;92.91;101785.72;5060705;28;70435;-50
2023/11/17 02:45:37;;;;;;;;;0.00;0.00;;;;;9.20;93.09;101784.81;5060599;28;47280;-50
2023/11/17 02:48:03;;;;;;;;;1.00;1.00;;;;;9.21;92.85;101776.78;5058975;28;45346;-49
2023/11/17 02:50:31;;;;;;;;;1.00;1.00;;;;;9.24;93.42;101786.44;5057646;28;45435;-51
2023/11/17 02:53:10;;;;;;;;;1.00;1.00;;;;;9.26;93.02;101787.28;5060518;28;45397;-50
2023/11/17 02:55:36;;;;;;;;;1.00;1.00;;;;;9.27;92.69;101783.72;5055324;28;47300;-51
2023/11/17 02:58:03;;;;;;;;;1.00;0.67;;;;;9.28;92.95;101769.50;5060441;28;45319;-50
2023/11/17 03:00:30;;;;;;;;;0.00;0.00;;;;;9.30;93.10;101770.34;5088166;27;46958;-50
2023/11/17 03:02:57;;;;;;;;;1.33;1.00;;;;;9.31;93.01;101766.78;5058424;28;45542;-51
2023/11/17 03:05:23;;;;;;;;;0.33;0.33;;;;;9.34;93.23;101777.31;5090311;27;45643;-50
2023/11/17 03:07:49;;;;;;;;;0.33;0.33;;;;;9.35;92.74;101780.84;5062320;28;45414;-50
2023/11/17 03:10:14;;;;;;;;;4.00;2.00;;;;;9.35;92.64;101771.09;5058756;28;67916;-50
2023/11/17 03:12:40;;;;;;;;;1.00;0.00;;;;;9.36;92.98;101775.50;5059601;28;45642;-48
2023/11/17 03:15:09;;;;;;;;;1.33;1.00;;;;;9.38;93.04;101772.78;5063332;28;74531;-49
2023/11/17 03:17:36;;;;;;;;;0.67;0.67;;;;;9.40;92.85;101771.81;5065672;28;45263;-51
2023/11/17 03:20:02;;;;;;;;;0.00;0.00;;;;;9.44;92.84;101773.47;5059183;28;45391;-48
2023/11/17 03:22:27;;;;;;;;;0.00;0.00;;;;;9.48;93.20;101779.56;5060189;28;45497;-50
2023/11/17 03:24:52;;;;;;;;;0.00;0.00;;;;;9.50;92.73;101782.16;5065459;28;75602;-48
2023/11/17 03:27:18;;;;;;;;;1.00;1.00;;;;;9.52;93.00;101772.38;5058603;28;72075;-48
2023/11/17 03:29:46;;;;;;;;;1.00;1.00;;;;;9.53;92.68;101772.34;5059743;28;45439;-50
2023/11/17 03:32:12;;;;;;;;;1.00;1.00;;;;;9.54;93.09;101766.13;5058313;28;45998;-49
2023/11/17 03:34:40;;;;;;;;;1.00;1.00;;;;;9.55;92.59;101761.66;5057362;28;75499;-51
2023/11/17 03:37:05;;;;;;;;;0.33;0.33;;;;;9.56;92.98;101750.13;5059039;28;45342;-50
2023/11/17 03:39:33;;;;;;;;;0.00;0.00;;;;;9.57;92.50;101742.09;5058879;28;69174;-49
2023/11/17 03:41:59;;;;;;;;;0.00;0.00;;;;;9.55;92.05;101740.41;5059334;28;45621;-50
2023/11/17 03:44:27;;;;;;;;;0.67;0.67;;;;;9.51;92.04;101741.44;5059399;28;46105;-52
2023/11/17 03:46:54;;;;;;;;;1.00;1.00;;;;;9.47;92.24;101745.09;5059041;28;45288;-50
2023/11/17 03:49:20;;;;;;;;;0.67;0.67;;;;;9.39;92.03;101753.28;5059642;28;45363;-52
2023/11/17 03:51:46;;;;;;;;;1.00;0.00;;;;;9.33;92.36;101754.31;5056061;28;45443;-48
2023/11/17 03:54:11;;;;;;;;;0.00;0.00;;;;;9.30;93.06;101767.69;5062299;28;46556;-49
2023/11/17 03:56:37;;;;;;;;;1.00;1.00;;;;;9.30;92.94;101770.34;5058339;28;73067;-48
2023/11/17 03:59:04;;;;;;;;;2.00;1.00;;;;;9.31;92.96;101773.88;5087095;27;45317;-51
2023/11/17 04:01:30;;;;;;;;;1.00;1.00;;;;;9.29;93.35;101757.97;5059456;28;45425;-51
2023/11/17 04:03:56;;;;;;;;;1.00;1.00;;;;;9.27;93.34;101765.16;5086829;27;45420;-51
2023/11/17 04:06:21;;;;;;;;;0.00;0.00;;;;;9.24;93.17;101763.44;5058289;28;72085;-49
2023/11/17 04:08:47;;;;;;;;;1.00;1.00;;;;;9.25;93.41;101753.69;5062399;28;45443;-50
2023/11/17 04:11:15;;;;;;;;;1.00;1.00;;;;;9.31;93.35;101750.84;5058381;28;45456;-49
2023/11/17 04:13:42;;;;;;;;;1.00;1.00;;;;;9.36;93.57;101745.41;5090239;27;46116;-49
2023/11/17 04:16:08;;;;;;;;;2.33;1.00;;;;;9.40;93.48;101739.09;5058585;28;45295;-49
2023/11/17 04:18:34;;;;;;;;;1.00;1.00;;;;;9.42;93.08;101732.78;5059152;28;45205;-49
2023/11/17 04:20:59;;;;;;;;;1.33;0.00;;;;;9.43;92.63;101744.31;5058874;28;58043;-52
2023/11/17 04:23:24;;;;;;;;;1.00;1.00;;;;;9.46;93.00;101764.59;5058610;28;75578;-52
2023/11/17 04:25:51;;;;;;;;;1.33;1.00;;;;;9.49;93.03;101761.84;5058768;28;51198;-48
2023/11/17 04:28:17;;;;;;;;;2.00;0.00;;;;;9.50;92.83;101780.38;5058533;28;45336;-48
2023/11/17 04:30:43;;;;;;;;;0.67;0.67;;;;;9.49;92.61;101772.47;5059104;28;45465;-48
2023/11/17 04:33:09;;;;;;;;;1.33;0.33;;;;;9.47;92.15;101767.19;5058074;28;46387;-53
2023/11/17 04:35:34;;;;;;;;;0.00;0.00;;;;;9.43;92.47;101776.19;5058967;28;45358;-49
2023/11/17 04:38:00;;;;;;;;;0.00;0.00;;;;;9.42;92.61;101785.91;5057483;28;68043;-51
2023/11/17 04:40:25;;;;;;;;;0.00;0.00;;;;;9.41;92.51;101786.84;5058537;28;55376;-49
2023/11/17 04:42:50;;;;;;;;;0.00;0.00;;;;;9.42;92.68;101775.28;5058664;28;45993;-51
2023/11/17 04:45:16;;;;;;;;;0.67;0.67;;;;;9.43;92.65;101771.72;5057342;28;71017;-51
2023/11/17 04:47:42;;;;;;;;;0.00;0.00;;;;;9.42;92.42;101762.00;5049632;28;68156;-50
2023/11/17 04:50:10;;;;;;;;;0.33;0.33;;;;;9.44;92.00;101759.34;5058204;28;45516;-51
2023/11/17 04:52:35;;;;;;;;;0.00;0.00;;;;;9.43;92.48;101754.94;5058802;28;46188;-52
2023/11/17 04:55:03;;;;;;;;;0.33;0.33;;;;;9.42;92.42;101747.88;5058283;28;45669;-50
2023/11/17 04:57:28;;;;;;;;;2.00;0.67;;;;;9.40;92.42;101766.50;5058324;28;45485;-51
2023/11/17 04:59:53;;;;;;;;;1.00;1.00;;;;;9.37;92.57;101773.69;5058208;28;45373;-50
2023/11/17 05:02:19;;;;;;;;;1.00;1.00;;;;;9.31;92.22;101768.56;5057653;28;75430;-52
2023/11/17 05:04:44;;;;;;;;;0.67;0.67;;;;;9.25;92.35;101773.13;5062606;28;73055;-50
2023/11/17 05:07:09;;;;;;;;;0.67;0.67;;;;;9.22;92.07;101775.03;5057082;28;68107;-48
2023/11/17 05:09:34;;;;;;;;;0.00;0.00;;;;;9.21;92.55;101774.13;5064179;28;70546;-48
2023/11/17 05:12:02;;;;;;;;;0.00;0.00;;;;;9.20;92.58;101768.88;5056978;28;74266;-49
2023/11/17 05:14:27;;;;;;;;;1.00;1.00;;;;;9.20;92.52;101769.72;5057907;28;45351;-49
2023/11/17 05:16:59;;;;;;;;;0.67;0.67;;;;;9.24;92.63;101757.25;5058090;28;45410;-48
2023/11/17 05:19:24;;;;;;;;;1.00;1.00;;;;;9.26;92.69;101764.25;5058393;28;45369;-50
2023/11/17 05:21:49;;;;;;;;;1.00;1.00;;;;;9.26;91.99;101768.72;5062656;28;46861;-49
2023/11/17 05:24:15;;;;;;;;;2.00;0.00;;;;;9.24;92.08;101787.34;5060989;28;72003;-50
2023/11/17 05:26:40;;;;;;;;;1.00;0.67;;;;;9.20;92.20;101775.03;5061820;28;69297;-50
2023/11/17 05:29:05;;;;;;;;;2.00;0.00;;;;;9.21;92.32;101762.66;5060487;28;63117;-48
2023/11/17 05:31:31;;;;;;;;;1.00;1.00;;;;;9.22;92.57;101761.75;5068181;27;72756;-52
2023/11/17 05:33:57;;;;;;;;;0.67;0.67;;;;;9.25;92.34;101756.34;5064491;28;45509;-50
2023/11/17 05:36:22;;;;;;;;;4.00;2.00;;;;;9.26;92.17;101769.56;5061566;28;45383;-51
2023/11/17 05:38:48;;;;;;;;;0.00;0.00;;;;;9.27;92.09;101773.13;5060230;28;45477;-51
2023/11/17 05:41:13;;;;;;;;;1.00;1.00;;;;;9.26;92.14;101760.75;5063121;28;46265;-51
2023/11/17 05:43:42;;;;;;;;;1.67;1.00;;;;;9.27;92.08;101759.84;5063502;28;45393;-51
2023/11/17 05:46:10;;;;;;;;;2.00;1.00;;;;;9.29;92.21;101760.66;5061164;28;45316;-50
2023/11/17 05:48:36;;;;;;;;;1.00;1.00;;;;;9.31;92.23;101750.84;5061626;28;45299;-50
2023/11/17 05:51:05;;;;;;;;;1.67;1.00;;;;;9.33;92.15;101759.63;5061006;28;45563;-51
2023/11/17 05:53:31;;;;;;;;;1.00;1.00;;;;;9.34;92.25;101768.50;5061357;28;45364;-52
2023/11/17 05:55:56;;;;;;;;;1.00;1.00;;;;;9.34;92.15;101772.00;5063279;28;60255;-52
2023/11/17 05:58:22;;;;;;;;;1.67;1.33;;;;;9.36;92.11;101777.25;5062606;28;69341;-50
2023/11/17 06:00:47;;;;;;;;;2.00;2.00;;;;;9.38;91.98;101780.75;5062061;28;46321;-49
2023/11/17 06:03:12;;;;;;;;;1.33;1.33;;;;;9.40;92.09;101776.28;5064091;28;45330;-49
2023/11/17 06:05:38;;;;;;;;;1.00;1.00;;;;;9.42;92.02;101775.28;5060177;28;69189;-51
2023/11/17 06:08:03;;;;;;;;;4.67;3.33;;;;;9.46;91.73;101783.19;5062895;28;45512;-48
2023/11/17 06:10:29;;;;;;;;;3.00;3.00;;;;;9.47;91.60;101788.44;5070256;28;45549;-50
2023/11/17 06:12:54;;;;;;;;;1.67;1.00;;;;;9.49;91.55;101783.97;5058655;28;45342;-49
2023/11/17 06:15:26;;;;;;;;;1.00;1.00;;;;;9.52;91.55;101786.53;5058178;28;45358;-50
2023/11/17 06:17:52;;;;;;;;;3.00;2.00;;;;;9.55;91.56;101789.06;5060513;28;45312;-51
2023/11/17 06:20:18;;;;;;;;;1.33;1.00;;;;;9.58;91.43;101793.44;5060663;28;53157;-51
2023/11/17 06:22:44;;;;;;;;;1.00;1.00;;;;;9.58;91.34;101796.97;5092826;27;45560;-52
2023/11/17 06:25:10;;;;;;;;;1.00;1.00;;;;;9.60;91.12;101796.91;5067181;28;45373;-53
2023/11/17 06:27:37;;;;;;;;;1.00;1.00;;;;;9.60;91.12;101792.47;5060599;28;45597;-49
2023/11/17 06:30:04;;;;;;;;;1.00;1.00;;;;;9.61;90.88;101790.69;5055525;28;47525;-49
2023/11/17 06:32:30;;;;;;;;;2.00;1.00;;;;;9.62;91.17;101796.88;5062265;28;45661;-48
2023/11/17 06:34:55;;;;;;;;;1.33;1.33;;;;;9.64;90.91;101793.25;5059365;28;68130;-52
2023/11/17 06:37:20;;;;;;;;;1.00;1.00;;;;;9.65;91.10;101805.63;5046990;28;70434;-50
2023/11/17 06:39:46;;;;;;;;;1.00;1.00;;;;;9.66;90.66;101795.84;5069608;28;50152;-50
2023/11/17 06:42:11;;;;;;;;;1.00;1.00;;;;;9.67;90.85;101792.28;5059788;28;73200;-50
2023/11/17 06:44:36;;;;;;;;;1.00;1.00;;;;;9.68;90.70;101791.38;5071703;28;65118;-48
2023/11/17 06:47:06;;;;;;;;;1.00;1.00;;;;;9.67;90.68;101800.25;5058359;28;45661;-48
2023/11/17 06:49:32;;;;;;;;;1.00;1.00;;;;;9.67;90.86;101801.13;5060141;28;45624;-50
2023/11/17 06:51:58;;;;;;;;;0.00;0.00;;;;;9.66;90.68;101806.47;5059881;28;45181;-48
2023/11/17 06:54:24;;;;;;;;;0.33;0.33;;;;;9.61;89.97;101809.28;5080735;27;45283;-49
2023/11/17 06:56:51;;;;;;;;;2.33;1.00;;;;;9.55;90.04;101815.63;5060082;28;45472;-49
2023/11/17 06:59:18;;;;;;;;;2.00;2.00;;;;;9.49;90.26;101813.19;5059800;28;45776;-49
2023/11/17 07:01:46;;;;;;;;;1.00;1.00;;;;;9.43;90.37;101823.97;5059992;28;45329;-48
2023/11/17 07:04:12;;;;;;;;;0.67;0.67;;;;;9.36;91.01;101833.91;5065437;28;45292;-51
2023/11/17 07:06:38;;;;;;;;;0.67;0.67;;;;;9.31;90.74;101822.53;5062095;28;45402;-50
2023/11/17 07:09:15;;;;;;;;;1.00;1.00;;;;;9.27;91.01;101820.91;5063736;27;46749;-51
2023/11/17 07:11:42;;;;;;;;;2.00;2.00;;;;;9.23;91.28;101824.53;5047878;28;45345;-52
2023/11/17 07:14:07;;;;;;;;;2.00;2.00;;;;;9.20;91.06;101835.25;5059072;28;45402;-49
2023/11/17 07:16:34;;;;;;;;;1.00;1.00;;;;;9.16;91.51;101841.56;5065717;28;45577;-53
2023/11/17 07:19:00;;;;;;;;;1.67;1.00;;;;;9.14;91.59;101838.94;5060263;28;46147;-52
2023/11/17 07:21:25;;;;;;;;;0.67;0.67;;;;;9.12;91.79;101840.75;5059974;28;45409;-52
2023/11/17 07:23:50;;;;;;;;;2.00;2.00;;;;;9.10;92.06;101845.25;5060718;28;45481;-52
2023/11/17 07:26:18;;;;;;;;;2.00;1.67;;;;;9.08;92.29;101844.41;5054755;28;52370;-52
2023/11/17 07:28:47;;;;;;;;;2.00;2.00;;;;;9.06;92.12;101847.13;5064556;28;47370;-48
2023/11/17 07:31:15;;;;;;;;;4.00;2.00;;;;;9.07;92.31;101854.19;5061718;28;73154;-49
2023/11/17 07:33:40;;;;;;;;;2.33;2.33;;;;;9.06;92.31;101847.13;5066808;28;45310;-50
2023/11/17 07:36:08;;;;;;;;;2.00;2.00;;;;;9.07;92.40;101847.97;5063728;28;49024;-50
2023/11/17 07:38:35;;;;;;;;;6.00;5.00;;;;;9.12;92.71;101846.06;5063414;28;45431;-51
2023/11/17 07:41:01;;;;;;;;;3.67;3.67;;;;;9.16;92.32;101845.06;5067959;28;45906;-48
2023/11/17 07:43:26;;;;;;;;;4.33;4.33;;;;;9.20;92.08;101848.50;5055695;28;63199;-50
2023/11/17 07:45:51;;;;;;;;;8.00;8.00;;;;;9.24;91.97;101856.38;5052222;28;70578;-51
2023/11/17 07:48:18;;;;;;;;;17.67;14.33;;;;;9.28;92.05;101849.16;5054281;28;46060;-48
2023/11/17 07:50:43;;;;;;;;;39.67;31.00;;;;;9.34;92.16;101861.41;5060719;28;45596;-51
2023/11/17 07:53:08;;;;;;;;;17.00;16.33;;;;;9.40;92.07;101862.13;5058375;28;45465;-52
2023/11/17 07:55:34;;;;;;;;;12.00;12.00;;;;;9.44;91.69;101863.75;5055450;28;70353;-53
2023/11/17 07:58:01;;;;;;;;;14.00;14.00;;;;;9.50;91.75;101878.63;5052300;28;45563;-50
2023/11/17 08:00:31;;;;;;;;;13.33;11.33;;;;;9.57;91.51;101879.38;5049987;28;45628;-52
2023/11/17 08:02:56;;;;;;;;;18.67;18.67;;;;;9.66;91.46;101888.84;5053857;28;45423;-53
2023/11/17 08:05:23;;;;;;;;;16.67;16.00;;;;;9.72;91.35;101893.97;5060390;28;45585;-53
2023/11/17 08:07:49;;;;;;;;;16.00;13.33;;;;;9.83;91.10;101904.28;5045378;28;47129;-54
2023/11/17 08:10:14;;;;;;;;;6.67;6.67;;;;;9.92;90.66;101901.34;5054784;28;45664;-54
2023/11/17 08:12:39;;;;;;;;;5.33;4.00;;;;;9.94;90.42;101916.34;5057077;28;45382;-51
2023/11/17 08:15:06;;;;;;;;;13.00;13.00;;;;;9.96;90.26;101918.97;5044395;28;70444;-50
2023/11/17 08:17:31;;;;;;;;;10.33;10.33;;;;;9.99;90.09;101920.66;5055178;28;46624;-52
2023/11/17 08:19:58;;;;;;;;;3.00;2.67;;;;;10.01;90.06;101909.06;5053488;28;46058;-50
2023/11/17 08:22:24;;;;;;;;;3.00;3.00;;;;;10.03;90.04;101911.69;5054816;28;45534;-52
2023/11/17 08:24:51;;;;;;;;;2.33;2.33;;;;;10.02;90.01;101905.47;5062160;28;45342;-53
2023/11/17 08:27:16;;;;;;;;;2.67;2.33;;;;;10.04;90.15;101916.09;5058991;28;46952;-54
2023/11/17 08:29:42;;;;;;;;;3.00;3.00;;;;;10.07;90.09;101918.66;5056642;28;50429;-52
2023/11/17 08:32:07;;;;;;;;;6.33;6.33;;;;;10.07;90.15;101916.00;5059418;28;45777;-52
2023/11/17 08:34:33;;;;;;;;;9.33;9.33;;;;;10.06;90.18;101909.81;5053793;28;45576;-51
2023/11/17 08:36:59;;;;;;;;;6.00;5.00;;;;;10.07;90.28;101906.22;5055958;28;51367;-52
2023/11/17 08:39:27;;;;;;;;;3.67;3.67;;;;;10.06;89.61;101877.03;5060230;28;73157;-52
2023/11/17 08:41:56;;;;;;;;;2.00;2.00;;;;;9.93;89.89;101879.19;5056919;28;46804;-51
2023/11/17 08:44:22;;;;;;;;;2.67;2.67;;;;;9.86;89.75;101882.94;5053752;28;45647;-51
2023/11/17 08:46:49;;;;;;;;;5.00;2.00;;;;;9.81;89.99;101891.06;5056038;28;46186;-51
2023/11/17 08:49:16;;;;;;;;;2.00;2.00;;;;;9.82;90.41;101890.13;5055367;28;45562;-54
2023/11/17 08:51:41;;;;;;;;;4.00;4.00;;;;;9.83;90.73;101891.88;5055402;27;45610;-53
2023/11/17 08:54:07;;;;;;;;;3.33;3.33;;;;;9.90;91.04;101897.88;5054931;28;48547;-56
2023/11/17 08:56:34;;;;;;;;;1.67;1.67;;;;;10.01;90.63;101897.56;5057185;28;75806;-53
2023/11/17 08:59:01;;;;;;;;;5.00;4.00;;;;;10.11;90.46;101896.38;5059145;28;45468;-53
2023/11/17 09:01:27;;;;;;;;;3.00;3.00;;;;;10.18;90.44;101905.91;5054676;28;46866;-54
2023/11/17 09:03:52;;;;;;;;;5.00;4.00;;;;;10.26;90.26;101901.22;5059565;28;45508;-53
2023/11/17 09:06:18;;;;;;;;;5.33;4.00;;;;;10.35;90.09;101902.75;5041600;28;63757;-52
2023/11/17 09:08:43;;;;;;;;;3.00;3.00;;;;;10.40;89.49;101903.47;5060766;28;45343;-53
2023/11/17 09:11:08;;;;;;;;;4.00;2.00;;;;;10.39;88.99;101904.38;5058584;28;69422;-52
2023/11/17 09:13:34;;;;;;;;;4.00;2.33;;;;;10.33;88.70;101915.19;5059384;28;69534;-51
2023/11/17 09:15:59;;;;;;;;;3.00;3.00;;;;;10.28;88.82;101909.13;5058324;28;73309;-52
2023/11/17 09:18:24;;;;;;;;;3.00;2.33;;;;;10.26;88.98;101911.84;5055681;28;72064;-52
2023/11/17 09:20:50;;;;;;;;;2.00;2.00;;;;;10.25;88.86;101903.91;5059814;28;45778;-51
2023/11/17 09:23:15;;;;;;;;;2.33;2.00;;;;;10.27;88.98;101907.38;5054975;28;45618;-54
2023/11/17 09:25:40;;;;;;;;;1.00;1.00;;;;;10.35;89.04;101905.41;5060468;28;59391;-54
2023/11/17 09:28:06;;;;;;;;;2.33;1.67;;;;;10.48;89.22;101910.31;5055838;28;72068;-54
2023/11/17 09:30:32;;;;;;;;;3.00;1.00;;;;;10.63;88.96;101916.97;5058949;28;45373;-52
2023/11/17 09:32:58;;;;;;;;;2.00;1.00;;;;;10.99;88.58;101906.88;5058553;28;45252;-53
2023/11/17 09:35:28;;;;;;;;;3.33;3.33;;;;;12.26;88.98;101904.94;5060513;28;46489;-54
2023/11/17 09:38:04;;;;;;;;;3.33;2.00;;;;;13.60;85.21;101917.16;5055451;28;45994;-53
2023/11/17 09:40:32;;;;;;;;;3.00;3.00;;;;;14.15;80.16;101919.06;5061033;28;45322;-53
2023/11/17 09:42:59;;;;;;;;;4.33;2.33;;;;;14.14;78.03;101919.16;5058840;28;45366;-53
2023/11/17 09:45:27;;;;;;;;;1.00;1.00;;;;;14.13;78.15;101925.44;5059845;28;47172;-54
2023/11/17 09:47:53;;;;;;;;;2.00;2.00;;;;;14.02;76.05;101924.13;5060242;28;45391;-53
2023/11/17 09:50:21;;;;;;;;;3.67;2.00;;;;;13.89;77.34;101936.34;5060015;28;45401;-54
2023/11/17 09:52:48;;;;;;;;;3.00;3.00;;;;;13.92;76.95;101936.19;5060370;28;45729;-53
2023/11/17 09:55:16;;;;;;;;;1.67;1.67;;;;;13.97;77.67;101936.84;5060120;28;47184;-54
2023/11/17 09:57:45;;;;;;;;;3.67;2.00;;;;;13.92;77.95;101941.53;5087422;27;45464;-53
2023/11/17 10:00:20;;;;;;;;;5.00;2.67;;;;;13.82;76.36;101948.25;5059511;28;45525;-52
2023/11/17 10:02:59;;;;;;;;;2.00;2.00;;;;;13.75;76.97;101946.78;5061320;28;45363;-55
2023/11/17 10:05:35;;;;;;;;;6.00;3.00;;;;;13.59;74.89;101944.81;5059994;28;45360;-53
2023/11/17 10:08:06;;;;;;;;;2.00;2.00;;;;;13.52;76.34;101959.41;5059707;28;45704;-53
2023/11/17 10:10:36;;;;;;;;;3.00;2.00;;;;;13.67;77.19;101956.00;5060937;28;45285;-54
2023/11/17 10:13:02;;;;;;;;;1.33;1.33;;;;;13.94;76.70;101949.50;5060129;28;45296;-54
2023/11/17 10:15:31;;;;;;;;;2.00;2.00;;;;;14.16;74.67;101944.88;5055964;28;46400;-53
2023/11/17 10:18:07;;;;;;;;;3.33;3.00;;;;;14.30;75.25;101951.38;5055297;28;45296;-53
2023/11/17 10:20:37;;;;;;;;;3.00;3.00;;;;;14.38;73.05;101944.72;5056600;28;45434;-52
2023/11/17 10:23:04;;;;;;;;;2.00;2.00;;;;;14.47;73.77;101938.09;5058234;28;45690;-55
2023/11/17 10:25:30;;;;;;;;;5.00;3.67;;;;;14.93;72.81;101942.13;5050468;28;47314;-55
2023/11/17 10:27:57;;;;;;;;;2.33;1.33;;;;;15.57;73.78;101935.25;5057226;28;45509;-54
2023/11/17 10:30:30;;;;;;;;;1.00;1.00;;;;;16.21;69.96;101938.09;5050352;28;45663;-55
2023/11/17 10:32:58;;;;;;;;;5.33;3.00;;;;;16.94;71.55;101931.28;5056769;28;45756;-57
2023/11/17 10:35:24;;;;;;;;;2.00;2.00;;;;;17.53;69.43;101923.25;5057518;28;50578;-56
2023/11/17 10:38:00;;;;;;;;;1.00;1.00;;;;;17.68;65.64;101934.91;5058683;28;45469;-57
2023/11/17 10:40:31;;;;;;;;;1.00;1.00;;;;;17.51;65.64;101933.25;5055223;28;45553;-57
2023/11/17 10:43:14;;;;;;;;;3.75;1.00;;;;;17.69;65.26;101939.28;5073512;27;45476;-57
2023/11/17 10:45:41;;;;;;;;;1.00;1.00;;;;;18.07;64.18;101945.94;5059473;28;46161;-57
2023/11/17 10:48:07;;;;;;;;;1.50;1.50;;;;;18.35;64.58;101945.94;5056007;28;46433;-57
2023/11/17 10:50:35;;;;;;;;;0.50;0.50;;;;;18.54;63.30;101950.09;5053826;28;45589;-58
2023/11/17 10:53:14;;;;;;;;;0.67;0.67;;;;;18.61;61.32;101954.09;5054975;28;45667;-57
2023/11/17 10:55:42;;;;;;;;;1.75;1.75;;;;;18.74;62.85;101953.31;5057996;28;45495;-56
2023/11/17 10:58:08;;;;;;;;;1.00;1.00;;;;;18.67;62.28;101953.72;5055739;28;45508;-56
2023/11/17 11:00:39;;;;;;;;;0.75;0.75;;;;;18.49;61.12;101963.00;5060046;28;45386;-56
2023/11/17 11:03:07;;;;;;;;;3.67;2.00;;;;;18.15;59.80;101959.81;5055280;28;45522;-56
2023/11/17 11:05:32;;;;;;;;;0.25;0.25;;;;;17.90;60.78;101949.69;5058228;28;46148;-56
2023/11/17 11:07:58;;;;;;;;;1.00;1.00;;;;;17.73;60.28;101966.88;5055505;28;48189;-54
2023/11/17 11:10:26;;;;;;;;;0.75;0.75;;;;;17.53;58.29;101956.41;5057930;28;45410;-50
2023/11/17 11:12:52;;;;;;;;;2.00;1.33;;;;;17.50;61.59;101958.41;5057440;28;45521;-52
2023/11/17 11:15:17;;;;;;;;;3.67;3.00;;;;;17.59;60.79;101957.84;5054276;28;46104;-50
2023/11/17 11:17:54;;;;;;;;;5.67;5.67;;;;;17.80;60.33;101958.34;5058037;28;73403;-49
2023/11/17 11:20:23;;;;;;;;;2.25;1.50;;;;;17.98;60.28;101956.34;5052949;28;45624;-52
2023/11/17 11:22:50;;;;;;;;;2.75;1.00;;;;;18.01;58.96;101961.53;5054128;28;45488;-53
2023/11/17 11:25:17;;;;;;;;;0.67;0.67;;;;;17.82;60.29;101964.50;5056508;28;46299;-55
2023/11/17 11:27:44;;;;;;;;;1.25;0.50;;;;;17.52;60.89;101961.84;5055815;28;45422;-55
2023/11/17 11:30:10;;;;;;;;;3.00;3.00;;;;;17.23;59.82;101969.88;5055670;28;45484;-51